createdAt,value
2023-02-13T00:02:20.829Z,103090.53
2023-02-13T00:04:47.155Z,103090.28
2023-02-13T00:07:13.641Z,103092.97
2023-02-13T00:09:40.097Z,103090.78
2023-02-13T00:12:07.246Z,103089.16
2023-02-13T00:14:37.967Z,103088.34
2023-02-13T00:17:05.120Z,103085.34
2023-02-13T00:19:31.540Z,103089.16
2023-02-13T00:21:57.863Z,103087.00
2023-02-13T00:24:24.283Z,103091.34
2023-02-13T00:26:50.893Z,103092.16
2023-02-13T00:29:17.267Z,103093.00
2023-02-13T00:31:43.664Z,103093.00
2023-02-13T00:34:10.099Z,103083.16
2023-02-13T00:36:36.408Z,103093.28
2023-02-13T00:39:03.148Z,103091.34
2023-02-13T00:41:29.476Z,103087.81
2023-02-13T00:43:55.789Z,103089.72
2023-02-13T00:46:22.167Z,103090.53
2023-02-13T00:48:48.572Z,103090.28
2023-02-13T00:51:15.177Z,103082.63
2023-02-13T00:53:41.477Z,103079.06
2023-02-13T00:56:07.818Z,103087.81
2023-02-13T00:58:34.213Z,103084.81
2023-02-13T01:01:00.630Z,103082.63
2023-02-13T01:03:26.980Z,103085.88
2023-02-13T01:05:53.278Z,103091.09
2023-02-13T01:08:20.632Z,103083.41
2023-02-13T01:10:47.788Z,103085.63
2023-02-13T01:13:14.885Z,103092.69
2023-02-13T01:15:41.345Z,103099.81
2023-02-13T01:18:08.283Z,103106.34
2023-02-13T01:20:34.608Z,103084.50
2023-02-13T01:23:00.946Z,103100.34
2023-02-13T01:25:28.170Z,103094.34
2023-02-13T01:27:54.480Z,103094.06
2023-02-13T01:30:20.887Z,103093.22
2023-02-13T01:32:47.821Z,103095.69
2023-02-13T01:35:15.014Z,103096.22
2023-02-13T01:37:41.735Z,103093.50
2023-02-13T01:40:10.579Z,103089.44
2023-02-13T01:42:37.030Z,103097.09
2023-02-13T01:45:18.421Z,103093.50
2023-02-13T01:47:47.283Z,103097.06
2023-02-13T01:50:25.548Z,103099.50
2023-02-13T01:53:01.988Z,103099.25
2023-02-13T01:55:29.210Z,103103.84
2023-02-13T01:58:00.508Z,103110.41
2023-02-13T02:00:27.100Z,103110.41
2023-02-13T02:02:58.042Z,103109.59
2023-02-13T02:05:26.917Z,103107.69
2023-02-13T02:07:54.172Z,103104.44
2023-02-13T02:10:21.020Z,103095.97
2023-02-13T02:13:06.144Z,103103.06
2023-02-13T02:15:32.825Z,103098.41
2023-02-13T02:17:59.161Z,103105.81
2023-02-13T02:20:34.857Z,103101.97
2023-02-13T02:23:20.015Z,103104.16
2023-02-13T02:25:55.471Z,103101.13
2023-02-13T02:28:21.790Z,103103.59
2023-02-13T02:31:07.043Z,103114.00
2023-02-13T02:33:46.818Z,103110.72
2023-02-13T02:36:23.079Z,103102.81
2023-02-13T02:38:49.347Z,103109.59
2023-02-13T02:41:43.660Z,103104.44
2023-02-13T02:44:28.745Z,103101.69
2023-02-13T02:47:15.358Z,103108.25
2023-02-13T02:50:00.004Z,103110.72
2023-02-13T02:52:32.652Z,103108.78
2023-02-13T02:55:09.228Z,103111.25
2023-02-13T02:58:00.873Z,103107.69
2023-02-13T03:00:47.723Z,103106.34
2023-02-13T03:03:42.192Z,103098.44
2023-02-13T03:06:22.046Z,103107.16
2023-02-13T03:09:12.274Z,103104.41
2023-02-13T03:11:57.484Z,103106.84
2023-02-13T03:14:26.492Z,103099.50
2023-02-13T03:17:11.397Z,103107.69
2023-02-13T03:20:15.049Z,103103.88
2023-02-13T03:22:45.442Z,103104.16
2023-02-13T03:25:36.103Z,103101.41
2023-02-13T03:28:33.168Z,103105.78
2023-02-13T03:31:05.529Z,103113.16
2023-02-13T03:33:37.923Z,103110.69
2023-02-13T03:36:25.939Z,103110.69
2023-02-13T03:39:07.198Z,103111.78
2023-02-13T03:41:38.455Z,103104.97
2023-02-13T03:44:04.734Z,103107.94
2023-02-13T03:46:34.073Z,103106.84
2023-02-13T03:49:22.009Z,103107.16
2023-02-13T03:51:52.209Z,103118.59
2023-02-13T03:54:22.964Z,103107.97
2023-02-13T03:57:09.068Z,103110.41
2023-02-13T03:59:36.891Z,103114.50
2023-02-13T04:02:19.466Z,103121.34
2023-02-13T04:05:02.091Z,103114.78
2023-02-13T04:07:32.661Z,103124.91
2023-02-13T04:10:02.680Z,103117.50
2023-02-13T04:12:38.164Z,103123.25
2023-02-13T04:15:08.915Z,103121.34
2023-02-13T04:18:04.825Z,103114.00
2023-02-13T04:20:32.098Z,103113.72
2023-02-13T04:23:03.970Z,103117.22
2023-02-13T04:25:30.271Z,103109.31
2023-02-13T04:27:56.674Z,103113.97
2023-02-13T04:30:23.082Z,103109.59
2023-02-13T04:32:49.459Z,103105.78
2023-02-13T04:35:15.856Z,103103.88
2023-02-13T04:37:42.166Z,103091.59
2023-02-13T04:40:08.878Z,103108.25
2023-02-13T04:42:35.244Z,103101.13
2023-02-13T04:45:01.663Z,103107.16
2023-02-13T04:47:27.948Z,103113.13
2023-02-13T04:49:54.268Z,103104.91
2023-02-13T04:52:20.577Z,103105.78
2023-02-13T04:54:46.877Z,103109.31
2023-02-13T04:57:13.222Z,103113.72
2023-02-13T04:59:39.540Z,103110.69
2023-02-13T05:02:05.854Z,103116.72
2023-02-13T05:04:32.261Z,103110.41
2023-02-13T05:06:58.603Z,103111.78
2023-02-13T05:09:24.997Z,103108.53
2023-02-13T05:11:52.894Z,103114.75
2023-02-13T05:14:19.396Z,103111.22
2023-02-13T05:16:45.716Z,103108.50
2023-02-13T05:19:12.257Z,103113.69
2023-02-13T05:21:57.298Z,103109.84
2023-02-13T05:24:23.650Z,103105.19
2023-02-13T05:26:49.946Z,103107.13
2023-02-13T05:29:19.088Z,103113.63
2023-02-13T05:31:46.109Z,103120.50
2023-02-13T05:34:12.519Z,103114.50
2023-02-13T05:36:39.885Z,103123.25
2023-02-13T05:39:06.536Z,103120.22
2023-02-13T05:41:33.169Z,103113.38
2023-02-13T05:43:59.491Z,103116.66
2023-02-13T05:46:26.022Z,103110.91
2023-02-13T05:48:52.552Z,103111.47
2023-02-13T05:51:19.448Z,103114.72
2023-02-13T05:53:45.753Z,103113.63
2023-02-13T05:56:12.047Z,103120.72
2023-02-13T05:58:38.405Z,103123.38
2023-02-13T06:01:04.742Z,103119.59
2023-02-13T06:03:31.612Z,103111.16
2023-02-13T06:05:58.481Z,103121.19
2023-02-13T06:08:25.159Z,103120.13
2023-02-13T06:10:51.468Z,103116.88
2023-02-13T06:13:18.274Z,103115.75
2023-02-13T06:15:44.954Z,103120.59
2023-02-13T06:18:11.656Z,103120.63
2023-02-13T06:20:38.244Z,103123.97
2023-02-13T06:23:04.555Z,103126.94
2023-02-13T06:25:30.860Z,103127.75
2023-02-13T06:27:57.220Z,103123.41
2023-02-13T06:30:23.582Z,103126.97
2023-02-13T06:32:49.942Z,103136.75
2023-02-13T06:35:16.709Z,103132.94
2023-02-13T06:37:45.675Z,103128.31
2023-02-13T06:40:13.350Z,103125.06
2023-02-13T06:42:40.006Z,103133.78
2023-02-13T06:45:06.668Z,103134.63
2023-02-13T06:47:32.961Z,103129.16
2023-02-13T06:49:59.258Z,103144.41
2023-02-13T06:52:25.572Z,103140.59
2023-02-13T06:54:51.904Z,103142.50
2023-02-13T06:57:18.211Z,103142.75
2023-02-13T06:59:44.584Z,103149.59
2023-02-13T07:02:11.599Z,103154.47
2023-02-13T07:04:38.242Z,103154.72
2023-02-13T07:07:04.648Z,103157.75
2023-02-13T07:09:31.401Z,103163.22
2023-02-13T07:11:57.867Z,103162.69
2023-02-13T07:14:24.412Z,103165.91
2023-02-13T07:16:50.714Z,103164.50
2023-02-13T07:19:17.130Z,103169.66
2023-02-13T07:21:43.412Z,103175.63
2023-02-13T07:24:09.726Z,103175.47
2023-02-13T07:26:36.036Z,103172.81
2023-02-13T07:29:11.506Z,103182.63
2023-02-13T07:31:39.215Z,103174.69
2023-02-13T07:34:05.643Z,103179.03
2023-02-13T07:36:31.936Z,103175.00
2023-02-13T07:38:58.244Z,103174.44
2023-02-13T07:41:26.685Z,103169.00
2023-02-13T07:43:53.359Z,103171.16
2023-02-13T07:46:19.751Z,103172.75
2023-02-13T07:48:46.177Z,103175.47
2023-02-13T07:51:12.462Z,103172.22
2023-02-13T07:53:38.774Z,103176.66
2023-02-13T07:56:06.082Z,103175.31
2023-02-13T07:58:32.393Z,103172.06
2023-02-13T08:00:58.741Z,103163.31
2023-02-13T08:03:25.069Z,103171.69
2023-02-13T08:05:51.452Z,103175.06
2023-02-13T08:08:17.723Z,103172.59
2023-02-13T08:11:02.690Z,103172.31
2023-02-13T08:13:29.246Z,103164.97
2023-02-13T08:15:56.200Z,103168.72
2023-02-13T08:18:22.787Z,103162.44
2023-02-13T08:20:49.103Z,103157.28
2023-02-13T08:23:15.672Z,103155.69
2023-02-13T08:25:42.034Z,103157.31
2023-02-13T08:28:08.340Z,103157.91
2023-02-13T08:30:34.677Z,103155.69
2023-02-13T08:33:01.315Z,103152.44
2023-02-13T08:35:29.757Z,103158.44
2023-02-13T08:37:56.200Z,103160.34
2023-02-13T08:40:24.502Z,103155.69
2023-02-13T08:42:52.225Z,103163.91
2023-02-13T08:45:18.529Z,103163.59
2023-02-13T08:47:44.868Z,103160.59
2023-02-13T08:50:11.190Z,103172.38
2023-02-13T08:52:37.492Z,103166.66
2023-02-13T08:55:03.912Z,103166.91
2023-02-13T08:57:31.169Z,103169.66
2023-02-13T08:59:57.487Z,103172.91
2023-02-13T09:02:23.849Z,103170.47
2023-02-13T09:04:50.193Z,103172.63
2023-02-13T09:07:16.526Z,103177.53
2023-02-13T09:09:42.833Z,103181.69
2023-02-13T09:12:09.173Z,103182.75
2023-02-13T09:14:35.466Z,103179.19
2023-02-13T09:17:03.015Z,103178.91
2023-02-13T09:19:29.368Z,103182.47
2023-02-13T09:21:55.671Z,103180.59
2023-02-13T09:24:22.024Z,103182.47
2023-02-13T09:26:48.662Z,103182.22
2023-02-13T09:29:15.022Z,103185.22
2023-02-13T09:31:41.448Z,103183.03
2023-02-13T09:34:07.822Z,103184.16
2023-02-13T09:36:34.279Z,103187.97
2023-02-13T09:39:00.748Z,103190.69
2023-02-13T09:41:29.016Z,103193.16
2023-02-13T09:43:59.209Z,103184.44
2023-02-13T09:46:41.276Z,103181.13
2023-02-13T09:49:18.629Z,103175.69
2023-02-13T09:51:47.413Z,103182.25
2023-02-13T09:54:15.483Z,103181.94
2023-02-13T09:56:49.432Z,103181.41
2023-02-13T09:59:39.758Z,103184.44
2023-02-13T10:02:32.544Z,103186.06
2023-02-13T10:05:08.917Z,103187.97
2023-02-13T10:07:38.152Z,103193.41
2023-02-13T10:10:30.414Z,103188.25
2023-02-13T10:13:04.625Z,103194.53
2023-02-13T10:15:48.551Z,103192.06
2023-02-13T10:18:17.044Z,103188.50
2023-02-13T10:20:46.087Z,103187.41
2023-02-13T10:23:18.382Z,103187.16
2023-02-13T10:25:57.527Z,103184.16
2023-02-13T10:28:41.882Z,103188.53
2023-02-13T10:31:12.423Z,103192.88
2023-02-13T10:33:44.532Z,103187.97
2023-02-13T10:36:10.842Z,103188.25
2023-02-13T10:38:43.356Z,103192.34
2023-02-13T10:41:09.621Z,103194.81
2023-02-13T10:43:44.909Z,103191.81
2023-02-13T10:46:17.054Z,103188.50
2023-02-13T10:48:50.713Z,103186.91
2023-02-13T10:51:35.928Z,103191.25
2023-02-13T10:54:05.040Z,103177.88
2023-02-13T10:56:31.333Z,103180.34
2023-02-13T10:59:00.687Z,103177.06
2023-02-13T11:01:31.079Z,103183.88
2023-02-13T11:04:08.026Z,103182.78
2023-02-13T11:06:36.019Z,103172.69
2023-02-13T11:09:02.340Z,103175.41
2023-02-13T11:11:38.727Z,103189.88
2023-02-13T11:14:16.189Z,103171.59
2023-02-13T11:16:54.155Z,103176.50
2023-02-13T11:19:22.676Z,103165.03
2023-02-13T11:21:53.305Z,103174.31
2023-02-13T11:24:22.519Z,103174.88
2023-02-13T11:26:53.872Z,103176.50
2023-02-13T11:29:31.218Z,103178.97
2023-02-13T11:32:02.594Z,103182.25
2023-02-13T11:34:29.979Z,103178.69
2023-02-13T11:37:14.916Z,103176.53
2023-02-13T11:39:41.665Z,103175.97
2023-02-13T11:42:14.100Z,103178.69
2023-02-13T11:44:41.099Z,103180.63
2023-02-13T11:47:07.491Z,103169.16
2023-02-13T11:49:36.030Z,103170.22
2023-02-13T11:52:04.527Z,103170.78
2023-02-13T11:54:39.102Z,103166.41
2023-02-13T11:57:19.771Z,103179.22
2023-02-13T11:59:46.810Z,103180.88
2023-02-13T12:02:15.400Z,103187.44
2023-02-13T12:04:42.736Z,103180.31
2023-02-13T12:07:15.268Z,103183.03
2023-02-13T12:09:41.897Z,103190.97
2023-02-13T12:12:15.617Z,103186.31
2023-02-13T12:14:44.324Z,103190.72
2023-02-13T12:17:30.671Z,103182.25
2023-02-13T12:19:58.275Z,103178.41
2023-02-13T12:22:33.975Z,103178.41
2023-02-13T12:25:16.405Z,103169.94
2023-02-13T12:28:01.676Z,103172.66
2023-02-13T12:30:37.690Z,103164.47
2023-02-13T12:33:16.481Z,103169.94
2023-02-13T12:35:45.776Z,103175.13
2023-02-13T12:38:12.036Z,103170.50
2023-02-13T12:40:58.001Z,103180.59
2023-02-13T12:43:27.225Z,103180.88
2023-02-13T12:46:12.495Z,103177.59
2023-02-13T12:48:41.793Z,103183.03
2023-02-13T12:51:27.110Z,103184.16
2023-02-13T12:53:59.796Z,103180.59
2023-02-13T12:56:37.432Z,103186.88
2023-02-13T12:59:21.193Z,103181.69
2023-02-13T13:01:59.633Z,103177.06
2023-02-13T13:04:34.863Z,103165.59
2023-02-13T13:07:13.376Z,103171.03
2023-02-13T13:09:39.648Z,103173.22
2023-02-13T13:12:24.784Z,103171.88
2023-02-13T13:14:59.201Z,103172.16
2023-02-13T13:17:44.431Z,103176.22
2023-02-13T13:20:10.747Z,103171.59
2023-02-13T13:22:37.092Z,103174.06
2023-02-13T13:25:07.045Z,103169.38
2023-02-13T13:27:36.237Z,103170.50
2023-02-13T13:30:14.165Z,103173.78
2023-02-13T13:32:41.681Z,103174.88
2023-02-13T13:35:14.046Z,103183.03
2023-02-13T13:37:49.369Z,103179.78
2023-02-13T13:40:27.993Z,103173.22
2023-02-13T13:42:54.626Z,103184.69
2023-02-13T13:45:50.330Z,103180.88
2023-02-13T13:48:16.671Z,103176.22
2023-02-13T13:50:44.479Z,103167.50
2023-02-13T13:53:12.534Z,103161.75
2023-02-13T13:55:51.495Z,103164.75
2023-02-13T13:58:44.409Z,103164.50
2023-02-13T14:01:29.649Z,103169.94
2023-02-13T14:03:58.995Z,103162.03
2023-02-13T14:06:48.682Z,103155.22
2023-02-13T14:09:26.965Z,103156.84
2023-02-13T14:11:54.258Z,103160.69
2023-02-13T14:14:32.757Z,103151.38
2023-02-13T14:17:01.941Z,103148.09
2023-02-13T14:19:34.253Z,103140.47
2023-02-13T14:22:18.955Z,103152.72
2023-02-13T14:24:54.373Z,103152.44
2023-02-13T14:27:22.138Z,103143.75
2023-02-13T14:29:48.976Z,103137.72
2023-02-13T14:32:20.150Z,103133.94
2023-02-13T14:34:52.219Z,103129.53
2023-02-13T14:37:21.472Z,103132.81
2023-02-13T14:40:06.241Z,103123.53
2023-02-13T14:42:34.518Z,103123.25
2023-02-13T14:45:01.792Z,103126.25
2023-02-13T14:47:40.384Z,103120.00
2023-02-13T14:50:07.672Z,103112.88
2023-02-13T14:52:40.194Z,103123.53
2023-02-13T14:55:32.834Z,103121.34
2023-02-13T14:58:05.288Z,103115.88
2023-02-13T15:00:34.848Z,103112.88
2023-02-13T15:03:20.769Z,103113.97
2023-02-13T15:05:50.976Z,103128.47
2023-02-13T15:08:22.586Z,103121.91
2023-02-13T15:10:50.237Z,103118.38
2023-02-13T15:13:18.426Z,103111.25
2023-02-13T15:15:46.440Z,103116.44
2023-02-13T15:18:19.392Z,103111.53
2023-02-13T15:20:46.261Z,103110.69
2023-02-13T15:23:26.594Z,103104.44
2023-02-13T15:26:04.319Z,103095.72
2023-02-13T15:28:31.496Z,103101.44
2023-02-13T15:30:59.527Z,103088.06
2023-02-13T15:33:27.991Z,103086.16
2023-02-13T15:36:01.516Z,103077.69
2023-02-13T15:38:36.403Z,103069.25
2023-02-13T15:41:08.989Z,103073.59
2023-02-13T15:43:40.382Z,103077.66
2023-02-13T15:46:17.662Z,103075.81
2023-02-13T15:48:44.355Z,103081.50
2023-02-13T15:51:18.190Z,103074.97
2023-02-13T15:53:58.028Z,103075.22
2023-02-13T15:56:24.451Z,103074.97
2023-02-13T15:58:51.625Z,103065.13
2023-02-13T16:01:18.414Z,103079.31
2023-02-13T16:03:49.657Z,103079.06
2023-02-13T16:06:17.023Z,103080.44
2023-02-13T16:08:52.662Z,103085.34
2023-02-13T16:11:35.736Z,103092.97
2023-02-13T16:14:08.165Z,103084.78
2023-02-13T16:16:45.792Z,103076.06
2023-02-13T16:19:30.770Z,103068.69
2023-02-13T16:21:58.108Z,103078.53
2023-02-13T16:24:26.481Z,103086.16
2023-02-13T16:26:53.274Z,103095.69
2023-02-13T16:29:22.120Z,103094.06
2023-02-13T16:31:49.171Z,103103.88
2023-02-13T16:34:26.379Z,103096.53
2023-02-13T16:36:53.500Z,103094.06
2023-02-13T16:39:27.652Z,103097.34
2023-02-13T16:41:53.961Z,103095.47
2023-02-13T16:44:24.462Z,103094.34
2023-02-13T16:46:55.866Z,103087.53
2023-02-13T16:49:23.419Z,103098.72
2023-02-13T16:51:55.326Z,103100.91
2023-02-13T16:54:27.770Z,103106.63
2023-02-13T16:56:54.024Z,103109.38
2023-02-13T16:59:25.404Z,103104.47
2023-02-13T17:02:10.599Z,103108.28
2023-02-13T17:04:39.159Z,103102.53
2023-02-13T17:07:11.421Z,103101.72
2023-02-13T17:09:37.763Z,103101.47
2023-02-13T17:12:04.578Z,103112.09
2023-02-13T17:14:30.895Z,103105.25
2023-02-13T17:16:57.194Z,103115.09
2023-02-13T17:19:23.524Z,103120.00
2023-02-13T17:21:53.265Z,103115.34
2023-02-13T17:24:19.583Z,103124.34
2023-02-13T17:26:45.935Z,103123.84
2023-02-13T17:29:12.309Z,103134.75
2023-02-13T17:31:38.716Z,103127.06
2023-02-13T17:34:05.280Z,103123.28
2023-02-13T17:36:31.584Z,103133.06
2023-02-13T17:38:57.871Z,103137.47
2023-02-13T17:41:24.173Z,103148.13
2023-02-13T17:43:50.501Z,103137.47
2023-02-13T17:46:17.000Z,103147.00
2023-02-13T17:48:43.420Z,103141.53
2023-02-13T17:51:13.215Z,103143.16
2023-02-13T17:53:39.752Z,103145.34
2023-02-13T17:56:06.101Z,103145.63
2023-02-13T17:58:32.415Z,103149.44
2023-02-13T18:00:59.160Z,103153.84
2023-02-13T18:03:25.917Z,103141.53
2023-02-13T18:05:52.246Z,103143.16
2023-02-13T18:08:20.023Z,103143.16
2023-02-13T18:10:46.369Z,103140.44
2023-02-13T18:13:12.841Z,103143.44
2023-02-13T18:15:40.674Z,103142.63
2023-02-13T18:18:07.082Z,103145.09
2023-02-13T18:20:33.624Z,103144.81
2023-02-13T18:22:59.945Z,103145.66
2023-02-13T18:25:26.436Z,103138.28
2023-02-13T18:27:53.029Z,103146.19
2023-02-13T18:30:19.930Z,103141.25
2023-02-13T18:32:50.278Z,103134.16
2023-02-13T18:35:17.510Z,103137.69
2023-02-13T18:37:43.804Z,103139.31
2023-02-13T18:40:10.881Z,103146.16
2023-02-13T18:42:38.747Z,103142.31
2023-02-13T18:45:05.179Z,103142.59
2023-02-13T18:47:31.590Z,103142.31
2023-02-13T18:49:57.888Z,103142.88
2023-02-13T18:52:24.220Z,103138.25
2023-02-13T18:54:51.543Z,103142.31
2023-02-13T18:57:18.019Z,103143.72
2023-02-13T18:59:44.315Z,103149.19
2023-02-13T19:02:10.782Z,103142.09
2023-02-13T19:04:38.189Z,103144.78
2023-02-13T19:07:04.519Z,103139.88
2023-02-13T19:09:30.884Z,103145.63
2023-02-13T19:11:57.264Z,103143.19
2023-02-13T19:14:25.768Z,103135.53
2023-02-13T19:16:52.230Z,103138.25
2023-02-13T19:19:18.559Z,103136.59
2023-02-13T19:21:44.868Z,103133.88
2023-02-13T19:24:14.109Z,103145.06
2023-02-13T19:26:40.588Z,103146.44
2023-02-13T19:29:07.042Z,103147.50
2023-02-13T19:31:33.747Z,103147.78
2023-02-13T19:34:02.960Z,103149.69
2023-02-13T19:36:30.358Z,103148.91
2023-02-13T19:38:58.488Z,103154.91
2023-02-13T19:41:25.439Z,103149.69
2023-02-13T19:43:53.593Z,103154.06
2023-02-13T19:46:21.523Z,103151.63
2023-02-13T19:48:48.138Z,103158.69
2023-02-13T19:51:15.924Z,103154.59
2023-02-13T19:53:42.526Z,103160.34
2023-02-13T19:56:09.329Z,103165.78
2023-02-13T19:58:39.503Z,103159.22
2023-02-13T20:01:09.739Z,103164.69
2023-02-13T20:03:36.302Z,103172.03
2023-02-13T20:06:04.127Z,103173.69
2023-02-13T20:08:30.637Z,103165.50
2023-02-13T20:10:57.457Z,103163.88
2023-02-13T20:13:24.264Z,103163.88
2023-02-13T20:15:50.714Z,103162.22
2023-02-13T20:18:19.497Z,103168.75
2023-02-13T20:20:46.193Z,103174.75
2023-02-13T20:23:12.841Z,103168.75
2023-02-13T20:25:39.408Z,103176.38
2023-02-13T20:28:05.961Z,103174.47
2023-02-13T20:30:32.669Z,103172.81
2023-02-13T20:32:59.080Z,103175.56
2023-02-13T20:35:25.456Z,103177.16
2023-02-13T20:37:51.993Z,103170.06
2023-02-13T20:40:18.375Z,103171.47
2023-02-13T20:42:44.937Z,103177.75
2023-02-13T20:45:11.296Z,103172.56
2023-02-13T20:47:37.698Z,103171.44
2023-02-13T20:50:04.430Z,103172.56
2023-02-13T20:52:30.769Z,103173.34
2023-02-13T20:54:58.463Z,103176.91
2023-02-13T20:57:24.998Z,103171.44
2023-02-13T20:59:51.378Z,103183.47
2023-02-13T21:02:19.568Z,103179.03
2023-02-13T21:04:46.565Z,103185.28
2023-02-13T21:07:12.899Z,103187.25
2023-02-13T21:09:39.235Z,103182.88
2023-02-13T21:12:05.784Z,103189.44
2023-02-13T21:14:32.266Z,103180.13
2023-02-13T21:16:58.618Z,103184.44
2023-02-13T21:19:25.210Z,103188.28
2023-02-13T21:21:51.580Z,103186.13
2023-02-13T21:24:19.945Z,103188.88
2023-02-13T21:26:47.269Z,103191.09
2023-02-13T21:29:13.696Z,103191.31
2023-02-13T21:31:44.869Z,103187.22
2023-02-13T21:34:11.668Z,103195.16
2023-02-13T21:36:38.505Z,103190.78
2023-02-13T21:39:05.200Z,103182.06
2023-02-13T21:41:31.651Z,103173.59
2023-02-13T21:43:57.990Z,103176.56
2023-02-13T21:46:25.942Z,103176.94
2023-02-13T21:48:53.399Z,103179.09
2023-02-13T21:51:20.646Z,103181.25
2023-02-13T21:53:47.789Z,103188.41
2023-02-13T21:56:15.292Z,103179.06
2023-02-13T21:58:42.459Z,103189.44
2023-02-13T22:01:26.126Z,103186.13
2023-02-13T22:03:53.631Z,103182.88
2023-02-13T22:06:20.918Z,103183.47
2023-02-13T22:08:47.753Z,103199.81
2023-02-13T22:11:14.188Z,103196.81
2023-02-13T22:13:40.930Z,103192.97
2023-02-13T22:16:11.612Z,103199.00
2023-02-13T22:18:41.799Z,103196.53
2023-02-13T22:21:09.430Z,103195.44
2023-02-13T22:23:36.879Z,103200.34
2023-02-13T22:26:04.018Z,103193.22
2023-02-13T22:28:30.900Z,103201.41
2023-02-13T22:30:57.899Z,103197.31
2023-02-13T22:33:24.372Z,103198.41
2023-02-13T22:35:50.726Z,103202.75
2023-02-13T22:38:17.268Z,103198.91
2023-02-13T22:40:43.785Z,103209.31
2023-02-13T22:43:10.122Z,103194.22
2023-02-13T22:45:37.364Z,103198.66
2023-02-13T22:48:04.483Z,103195.88
2023-02-13T22:50:31.206Z,103196.69
2023-02-13T22:52:57.570Z,103202.97
2023-02-13T22:55:24.089Z,103207.91
2023-02-13T22:57:54.168Z,103206.28
2023-02-13T23:00:22.283Z,103202.97
2023-02-13T23:02:49.237Z,103209.00
2023-02-13T23:05:15.687Z,103211.19
2023-02-13T23:07:42.105Z,103205.97
2023-02-13T23:10:08.655Z,103215.16
2023-02-13T23:12:38.852Z,103203.47
2023-02-13T23:15:09.371Z,103199.03
2023-02-13T23:17:54.433Z,103209.34
2023-02-13T23:20:21.447Z,103211.19
2023-02-13T23:22:47.884Z,103195.22
2023-02-13T23:25:14.591Z,103201.72
2023-02-13T23:27:42.348Z,103204.47
2023-02-13T23:30:09.404Z,103201.22
2023-02-13T23:32:35.759Z,103208.28
2023-02-13T23:35:02.057Z,103208.34
2023-02-13T23:37:28.427Z,103202.38
2023-02-13T23:39:54.810Z,103200.50
2023-02-13T23:42:21.167Z,103199.94
2023-02-13T23:44:47.501Z,103197.44
2023-02-13T23:47:13.799Z,103195.81
2023-02-13T23:49:40.096Z,103196.94
2023-02-13T23:52:06.566Z,103197.19
2023-02-13T23:54:33.012Z,103197.19
2023-02-13T23:56:59.287Z,103185.75
2023-02-13T23:59:25.591Z,103187.34
